Terminal Aerodrome Forecast
Issued by NWS

Home | Current Version | Previous Version | Text Only | Print | Product List | Glossary On
Versions: 1 2 3 4 5 6 7 8 9 10 11 12
000
FTUS42 TJSJ 201140
TAFJBQ
TAF
TJBQ 201140Z 2012/2112 15003KT P6SM FEW030
     FM201500 28010KT P6SM VCSH SCT030 BKN060
     FM202300 33007KT P6SM FEW030 SCT100
     FM210400 07012KT P6SM FEW030
      AMD NOT SKED 2102/2111=

USA.gov is the U.S. government's official web portal to all federal, state and local government web resources and services.